createdAt,value
2019-04-27T00:02:22.127Z,100.00
2019-04-27T00:05:03.302Z,100.00
2019-04-27T00:08:00.942Z,100.00
2019-04-27T00:10:59.905Z,100.00
2019-04-27T00:13:30.481Z,100.00
2019-04-27T00:16:17.758Z,100.00
2019-04-27T00:19:07.004Z,100.00
2019-04-27T00:21:52.939Z,100.00
2019-04-27T00:24:23.556Z,100.00
2019-04-27T00:26:54.038Z,100.00
2019-04-27T00:29:25.919Z,100.00
2019-04-27T00:31:55.808Z,100.00
2019-04-27T00:34:25.758Z,100.00
2019-04-27T00:37:03.830Z,100.00
2019-04-27T00:39:48.312Z,100.00
2019-04-27T00:42:18.223Z,100.00
2019-04-27T00:44:48.186Z,100.00
2019-04-27T00:47:18.060Z,100.00
2019-04-27T00:49:48.072Z,100.00
2019-04-27T00:52:18.072Z,100.00
2019-04-27T00:54:47.939Z,100.00
2019-04-27T00:57:40.449Z,100.00
2019-04-27T01:00:28.116Z,100.00
2019-04-27T01:03:00.813Z,100.00
2019-04-27T01:05:30.859Z,100.00
2019-04-27T01:08:00.732Z,100.00
2019-04-27T01:10:30.590Z,100.00
2019-04-27T01:13:00.449Z,100.00
2019-04-27T01:15:30.360Z,100.00
2019-04-27T01:18:11.494Z,100.00
2019-04-27T01:20:31.850Z,100.00
2019-04-27T01:23:01.748Z,100.00
2019-04-27T01:26:02.809Z,100.00
2019-04-27T01:28:38.887Z,100.00
2019-04-27T01:31:11.144Z,100.00
2019-04-27T01:33:40.854Z,100.00
2019-04-27T01:36:10.870Z,100.00
2019-04-27T01:38:41.165Z,100.00
2019-04-27T01:41:11.066Z,100.00
2019-04-27T01:43:40.728Z,100.00
2019-04-27T01:46:10.654Z,100.00
2019-04-27T01:48:40.614Z,100.00
2019-04-27T01:51:10.371Z,100.00
2019-04-27T01:53:40.321Z,100.00
2019-04-27T01:56:10.371Z,100.00
2019-04-27T01:58:40.165Z,100.00
2019-04-27T02:01:30.005Z,100.00
2019-04-27T02:04:19.339Z,100.00
2019-04-27T02:06:51.516Z,100.00
2019-04-27T02:09:22.271Z,100.00
2019-04-27T02:11:52.333Z,100.00
2019-04-27T02:14:22.379Z,100.00
2019-04-27T02:16:52.144Z,100.00
2019-04-27T02:19:21.943Z,100.00
2019-04-27T02:21:51.832Z,100.00
2019-04-27T02:24:21.576Z,100.00
2019-04-27T02:26:51.411Z,100.00
2019-04-27T02:29:31.015Z,100.00
2019-04-27T02:32:20.386Z,100.00
2019-04-27T02:35:11.331Z,100.00
2019-04-27T02:37:41.339Z,100.00
2019-04-27T02:40:42.384Z,100.00
2019-04-27T02:43:11.179Z,100.00
2019-04-27T02:45:41.033Z,100.00
2019-04-27T02:48:10.828Z,100.00
2019-04-27T02:50:40.741Z,100.00
2019-04-27T02:53:11.296Z,100.00
2019-04-27T02:55:41.382Z,100.00
2019-04-27T02:58:13.064Z,100.00
2019-04-27T03:00:42.811Z,100.00
2019-04-27T03:03:14.714Z,100.00
2019-04-27T03:05:44.433Z,100.00
2019-04-27T03:08:14.264Z,100.00
2019-04-27T03:10:44.003Z,100.00
2019-04-27T03:13:35.605Z,100.00
2019-04-27T03:16:30.582Z,100.00
2019-04-27T03:19:21.645Z,100.00
2019-04-27T03:22:00.127Z,100.00
2019-04-27T03:24:49.794Z,100.00
2019-04-27T03:27:20.505Z,100.00
2019-04-27T03:29:50.334Z,100.00
2019-04-27T03:32:22.799Z,100.00
2019-04-27T03:34:52.797Z,100.00
2019-04-27T03:37:22.599Z,100.00
2019-04-27T03:39:52.484Z,100.00
2019-04-27T03:42:22.820Z,100.00
2019-04-27T03:44:52.704Z,100.00
2019-04-27T03:47:22.417Z,100.00
2019-04-27T03:49:52.399Z,100.00
2019-04-27T03:52:31.203Z,100.00
2019-04-27T03:55:14.465Z,100.00
2019-04-27T03:57:53.237Z,100.00
2019-04-27T04:00:26.328Z,100.00
2019-04-27T04:02:56.245Z,100.00
2019-04-27T04:05:26.368Z,100.00
2019-04-27T04:07:57.607Z,100.00
2019-04-27T04:10:29.312Z,100.00
2019-04-27T04:13:01.885Z,100.00
2019-04-27T04:15:52.713Z,100.00
2019-04-27T04:18:23.228Z,100.00
2019-04-27T04:20:52.979Z,100.00
2019-04-27T04:23:24.166Z,100.00
2019-04-27T04:25:53.867Z,100.00
2019-04-27T04:28:23.781Z,100.00
2019-04-27T04:30:54.831Z,100.00
2019-04-27T04:33:24.715Z,100.00
2019-04-27T04:35:55.762Z,100.00
2019-04-27T04:38:25.589Z,100.00
2019-04-27T04:41:01.380Z,100.00
2019-04-27T04:43:54.401Z,100.00
2019-04-27T04:46:41.640Z,100.00
2019-04-27T04:49:12.798Z,100.00
2019-04-27T04:51:42.596Z,100.00
2019-04-27T04:54:12.300Z,100.00
2019-04-27T04:56:43.398Z,100.00
2019-04-27T04:59:13.247Z,100.00
2019-04-27T05:01:43.512Z,100.00
2019-04-27T05:04:13.457Z,99.22
2019-04-27T05:06:43.322Z,98.50
2019-04-27T05:09:13.142Z,99.46
2019-04-27T05:11:42.981Z,100.00
2019-04-27T05:14:12.651Z,99.63
2019-04-27T05:16:42.403Z,98.20
2019-04-27T05:19:13.299Z,97.69
2019-04-27T05:21:43.110Z,97.50
2019-04-27T05:24:12.865Z,97.14
2019-04-27T05:26:42.647Z,100.00
2019-04-27T05:29:12.515Z,97.53
2019-04-27T05:31:42.402Z,95.61
2019-04-27T05:34:12.302Z,93.58
2019-04-27T05:36:48.766Z,92.88
2019-04-27T05:39:18.165Z,91.95
2019-04-27T05:41:45.335Z,91.89
2019-04-27T05:44:39.657Z,91.18
2019-04-27T05:47:14.922Z,89.13
2019-04-27T05:49:51.710Z,89.69
2019-04-27T05:52:33.436Z,89.22
2019-04-27T05:55:03.270Z,88.22
2019-04-27T05:57:33.054Z,87.24
2019-04-27T06:00:03.186Z,88.62
2019-04-27T06:02:32.998Z,87.95
2019-04-27T06:05:02.797Z,87.51
2019-04-27T06:07:32.680Z,91.27
2019-04-27T06:10:02.648Z,90.90
2019-04-27T06:12:32.480Z,90.63
2019-04-27T06:15:02.498Z,90.39
2019-04-27T06:17:32.296Z,88.59
2019-04-27T06:20:02.042Z,88.37
2019-04-27T06:22:31.917Z,87.03
2019-04-27T06:25:01.731Z,85.24
2019-04-27T06:27:31.579Z,85.70
2019-04-27T06:30:01.249Z,85.16
2019-04-27T06:32:31.176Z,85.60
2019-04-27T06:35:01.243Z,85.47
2019-04-27T06:37:31.003Z,86.21
2019-04-27T06:40:01.229Z,84.68
2019-04-27T06:42:32.270Z,83.21
2019-04-27T06:45:02.077Z,81.53
2019-04-27T06:47:31.799Z,81.53
2019-04-27T06:50:02.880Z,82.10
2019-04-27T06:52:32.750Z,82.88
2019-04-27T06:55:02.666Z,84.66
2019-04-27T06:57:32.424Z,85.72
2019-04-27T07:00:02.191Z,86.09
2019-04-27T07:02:31.902Z,85.10
2019-04-27T07:05:01.658Z,84.58
2019-04-27T07:07:31.380Z,85.39
2019-04-27T07:10:01.262Z,85.67
2019-04-27T07:12:31.013Z,86.99
2019-04-27T07:15:00.887Z,85.73
2019-04-27T07:17:30.806Z,87.76
2019-04-27T07:20:00.676Z,85.07
2019-04-27T07:22:30.530Z,84.30
2019-04-27T07:25:00.499Z,84.25
2019-04-27T07:27:30.352Z,85.04
2019-04-27T07:30:01.745Z,84.73
2019-04-27T07:32:32.865Z,84.72
2019-04-27T07:35:02.665Z,85.19
2019-04-27T07:37:32.595Z,85.68
2019-04-27T07:40:03.678Z,85.17
2019-04-27T07:42:34.152Z,83.83
2019-04-27T07:45:32.149Z,83.14
2019-04-27T07:48:02.051Z,84.45
2019-04-27T07:50:31.671Z,84.16
2019-04-27T07:53:02.739Z,84.30
2019-04-27T07:55:32.525Z,83.71
2019-04-27T07:58:04.938Z,83.88
2019-04-27T08:00:33.746Z,82.75
2019-04-27T08:03:03.727Z,82.33
2019-04-27T08:05:33.649Z,83.43
2019-04-27T08:08:03.429Z,83.93
2019-04-27T08:10:34.596Z,83.85
2019-04-27T08:13:04.412Z,83.59
2019-04-27T08:15:34.104Z,82.66
2019-04-27T08:18:04.117Z,82.43
2019-04-27T08:20:33.952Z,83.51
2019-04-27T08:23:03.757Z,82.55
2019-04-27T08:25:33.709Z,83.91
2019-04-27T08:28:10.429Z,85.76
2019-04-27T08:31:00.408Z,84.93
2019-04-27T08:33:30.235Z,85.18
2019-04-27T08:36:00.071Z,85.39
2019-04-27T08:38:31.134Z,85.80
2019-04-27T08:41:01.016Z,85.80
2019-04-27T08:43:31.858Z,84.42
2019-04-27T08:46:01.626Z,82.99
2019-04-27T08:48:36.852Z,83.52
2019-04-27T08:51:03.109Z,83.07
2019-04-27T08:53:32.877Z,82.84
2019-04-27T08:56:04.032Z,85.29
2019-04-27T08:58:33.820Z,85.71
2019-04-27T09:01:03.756Z,84.99
2019-04-27T09:03:33.503Z,84.79
2019-04-27T09:06:06.820Z,84.90
2019-04-27T09:08:51.189Z,85.84
2019-04-27T09:11:40.516Z,84.50
2019-04-27T09:14:32.214Z,85.48
2019-04-27T09:17:09.781Z,85.34
2019-04-27T09:20:09.459Z,84.75
2019-04-27T09:22:39.311Z,84.02
2019-04-27T09:25:09.403Z,82.88
2019-04-27T09:27:39.381Z,82.36
2019-04-27T09:30:10.337Z,83.09
2019-04-27T09:32:40.831Z,84.35
2019-04-27T09:35:10.654Z,84.47
2019-04-27T09:37:40.635Z,86.49
2019-04-27T09:40:10.913Z,87.64
2019-04-27T09:42:40.748Z,86.66
2019-04-27T09:45:11.116Z,84.17
2019-04-27T09:47:40.760Z,84.84
2019-04-27T09:50:11.018Z,87.46
2019-04-27T09:52:40.887Z,86.53
2019-04-27T09:55:10.913Z,84.30
2019-04-27T09:57:40.786Z,84.00
2019-04-27T10:00:11.853Z,86.32
2019-04-27T10:02:41.909Z,84.95
2019-04-27T10:05:12.463Z,84.82
2019-04-27T10:07:42.128Z,85.40
2019-04-27T10:10:12.576Z,83.68
2019-04-27T10:12:43.904Z,83.67
2019-04-27T10:15:13.742Z,81.98
2019-04-27T10:17:43.655Z,80.35
2019-04-27T10:20:13.625Z,80.90
2019-04-27T10:22:43.888Z,81.17
2019-04-27T10:25:27.841Z,80.69
2019-04-27T10:28:00.733Z,82.90
2019-04-27T10:30:31.600Z,82.74
2019-04-27T10:33:01.476Z,82.36
2019-04-27T10:35:31.511Z,83.04
2019-04-27T10:38:01.366Z,81.93
2019-04-27T10:40:31.242Z,82.14
2019-04-27T10:43:01.163Z,83.25
2019-04-27T10:45:30.917Z,81.25
2019-04-27T10:48:00.761Z,82.49
2019-04-27T10:50:30.802Z,81.95
2019-04-27T10:53:00.742Z,82.54
2019-04-27T10:55:30.645Z,83.32
2019-04-27T10:58:00.385Z,84.15
2019-04-27T11:00:36.824Z,84.51
2019-04-27T11:03:07.186Z,83.35
2019-04-27T11:05:52.762Z,84.13
2019-04-27T11:08:22.583Z,83.69
2019-04-27T11:10:52.344Z,83.37
2019-04-27T11:13:22.274Z,82.26
2019-04-27T11:15:52.238Z,81.05
2019-04-27T11:18:22.099Z,79.85
2019-04-27T11:20:52.013Z,80.05
2019-04-27T11:23:21.983Z,80.54
2019-04-27T11:25:52.967Z,79.79
2019-04-27T11:28:22.679Z,79.13
2019-04-27T11:30:53.775Z,78.05
2019-04-27T11:33:23.634Z,78.25
2019-04-27T11:36:16.986Z,78.70
2019-04-27T11:38:48.308Z,79.27
2019-04-27T11:41:19.426Z,80.94
2019-04-27T11:43:49.218Z,79.49
2019-04-27T11:46:18.943Z,77.33
2019-04-27T11:48:50.174Z,75.73
2019-04-27T11:51:20.038Z,73.57
2019-04-27T11:53:51.188Z,75.47
2019-04-27T11:56:20.955Z,75.92
2019-04-27T11:58:50.770Z,78.21
2019-04-27T12:01:20.749Z,78.98
2019-04-27T12:03:50.618Z,79.22
2019-04-27T12:06:20.463Z,80.70
2019-04-27T12:08:50.120Z,80.25
2019-04-27T12:11:19.959Z,80.86
2019-04-27T12:13:50.917Z,80.98
2019-04-27T12:16:20.702Z,80.29
2019-04-27T12:18:50.616Z,79.04
2019-04-27T12:21:20.587Z,82.28
2019-04-27T12:23:50.455Z,83.21
2019-04-27T12:26:36.259Z,84.15
2019-04-27T12:29:07.448Z,83.82
2019-04-27T12:31:39.616Z,83.27
2019-04-27T12:34:09.486Z,80.96
2019-04-27T12:36:39.401Z,77.00
2019-04-27T12:39:13.373Z,74.64
2019-04-27T12:41:43.514Z,74.42
2019-04-27T12:44:13.498Z,76.73
2019-04-27T12:46:43.269Z,73.41
2019-04-27T12:49:13.298Z,71.30
2019-04-27T12:51:43.538Z,70.91
2019-04-27T12:54:36.242Z,68.21
2019-04-27T12:57:26.378Z,69.65
2019-04-27T13:00:16.544Z,67.90
2019-04-27T13:02:46.731Z,69.37
2019-04-27T13:05:16.670Z,70.21
2019-04-27T13:07:46.473Z,72.30
2019-04-27T13:10:16.633Z,70.67
2019-04-27T13:12:46.545Z,68.74
2019-04-27T13:15:17.168Z,68.79
2019-04-27T13:17:46.915Z,69.72
2019-04-27T13:20:16.804Z,71.69
2019-04-27T13:22:46.917Z,70.49
2019-04-27T13:25:16.838Z,68.55
2019-04-27T13:27:48.124Z,68.49
2019-04-27T13:30:19.843Z,66.41
2019-04-27T13:32:49.666Z,65.97
2019-04-27T13:35:19.378Z,65.92
2019-04-27T13:37:49.305Z,68.64
2019-04-27T13:40:19.737Z,69.79
2019-04-27T13:43:16.641Z,71.70
2019-04-27T13:45:53.929Z,74.79
2019-04-27T13:48:41.382Z,75.70
2019-04-27T13:51:14.262Z,77.14
2019-04-27T13:53:45.614Z,78.94
2019-04-27T13:56:17.140Z,78.01
2019-04-27T13:58:46.849Z,78.25
2019-04-27T14:01:16.718Z,77.77
2019-04-27T14:03:46.767Z,78.99
2019-04-27T14:06:16.665Z,77.58
2019-04-27T14:08:46.542Z,74.81
2019-04-27T14:11:18.108Z,71.43
2019-04-27T14:13:48.494Z,72.88
2019-04-27T14:16:18.955Z,73.85
2019-04-27T14:18:48.772Z,73.18
2019-04-27T14:21:18.731Z,72.23
2019-04-27T14:23:48.554Z,73.75
2019-04-27T14:26:18.594Z,73.27
2019-04-27T14:28:49.882Z,73.64
2019-04-27T14:31:20.985Z,77.64
2019-04-27T14:33:52.822Z,79.73
2019-04-27T14:36:22.586Z,81.45
2019-04-27T14:38:52.583Z,84.68
2019-04-27T14:41:22.622Z,86.75
2019-04-27T14:44:05.425Z,89.33
2019-04-27T14:46:24.083Z,89.76
2019-04-27T14:48:53.913Z,90.64
2019-04-27T14:51:23.859Z,91.47
2019-04-27T14:53:53.587Z,93.67
2019-04-27T14:56:24.868Z,95.78
2019-04-27T14:58:55.137Z,95.90
2019-04-27T15:01:25.093Z,96.36
2019-04-27T15:03:54.845Z,98.65
2019-04-27T15:06:25.821Z,100.00
2019-04-27T15:08:55.891Z,99.79
2019-04-27T15:11:25.857Z,99.89
2019-04-27T15:13:59.294Z,99.91
2019-04-27T15:16:28.442Z,100.00
2019-04-27T15:19:02.434Z,100.00
2019-04-27T15:21:38.371Z,100.00
2019-04-27T15:24:10.259Z,100.00
2019-04-27T15:26:36.353Z,100.00
2019-04-27T15:29:07.386Z,100.00
2019-04-27T15:31:41.337Z,100.00
2019-04-27T15:34:29.977Z,100.00
2019-04-27T15:37:35.281Z,100.00
2019-04-27T15:40:35.492Z,100.00
2019-04-27T15:43:30.408Z,100.00
2019-04-27T15:45:58.723Z,100.00
2019-04-27T15:48:30.688Z,100.00
2019-04-27T15:51:03.239Z,100.00
2019-04-27T15:53:31.747Z,100.00
2019-04-27T15:56:02.026Z,100.00
2019-04-27T15:58:32.024Z,100.00
2019-04-27T16:01:06.684Z,100.00
2019-04-27T16:03:34.751Z,100.00
2019-04-27T16:06:08.114Z,100.00
2019-04-27T16:08:38.261Z,100.00
2019-04-27T16:11:09.911Z,100.00
2019-04-27T16:13:40.195Z,100.00
2019-04-27T16:16:10.177Z,100.00
2019-04-27T16:18:41.315Z,100.00
2019-04-27T16:21:12.375Z,100.00
2019-04-27T16:23:43.129Z,100.00
2019-04-27T16:26:14.869Z,100.00
2019-04-27T16:28:49.681Z,100.00
2019-04-27T16:31:18.667Z,100.00
2019-04-27T16:33:49.603Z,100.00
2019-04-27T16:36:20.991Z,100.00
2019-04-27T16:39:03.794Z,100.00
2019-04-27T16:41:37.316Z,100.00
2019-04-27T16:44:08.806Z,100.00
2019-04-27T16:46:39.387Z,100.00
2019-04-27T16:49:13.789Z,100.00
2019-04-27T16:51:42.496Z,100.00
2019-04-27T16:54:17.524Z,100.00
2019-04-27T16:56:45.548Z,100.00
2019-04-27T16:59:36.434Z,100.00
2019-04-27T17:01:50.143Z,100.00
2019-04-27T17:04:19.750Z,100.00
2019-04-27T17:06:49.665Z,100.00
2019-04-27T17:09:19.411Z,100.00
2019-04-27T17:11:51.736Z,100.00
2019-04-27T17:14:34.813Z,100.00
2019-04-27T17:17:29.576Z,100.00
2019-04-27T17:20:03.177Z,100.00
2019-04-27T17:22:32.884Z,100.00
2019-04-27T17:25:02.824Z,100.00
2019-04-27T17:27:41.263Z,100.00
2019-04-27T17:30:11.339Z,100.00
2019-04-27T17:33:01.496Z,100.00
2019-04-27T17:35:34.787Z,100.00
2019-04-27T17:38:03.747Z,100.00
2019-04-27T17:40:36.026Z,100.00
2019-04-27T17:43:07.995Z,100.00
2019-04-27T17:45:39.254Z,100.00
2019-04-27T17:48:10.844Z,100.00
2019-04-27T17:50:40.676Z,100.00
2019-04-27T17:53:10.610Z,100.00
2019-04-27T17:55:41.782Z,100.00
2019-04-27T17:58:11.567Z,100.00
2019-04-27T18:00:44.581Z,100.00
2019-04-27T18:03:17.559Z,100.00
2019-04-27T18:05:50.570Z,100.00
2019-04-27T18:08:20.310Z,100.00
2019-04-27T18:10:47.743Z,100.00
2019-04-27T18:13:20.728Z,100.00
2019-04-27T18:15:50.617Z,100.00
2019-04-27T18:18:38.004Z,100.00
2019-04-27T18:21:08.470Z,100.00
2019-04-27T18:23:40.166Z,100.00
2019-04-27T18:26:19.320Z,100.00
2019-04-27T18:28:53.760Z,100.00
2019-04-27T18:31:21.651Z,100.00
2019-04-27T18:33:51.524Z,100.00
2019-04-27T18:36:21.547Z,100.00
2019-04-27T18:38:51.456Z,100.00
2019-04-27T18:41:21.220Z,100.00
2019-04-27T18:43:54.707Z,100.00
2019-04-27T18:46:24.820Z,100.00
2019-04-27T18:49:13.156Z,100.00
2019-04-27T18:51:58.172Z,100.00
2019-04-27T18:54:26.202Z,100.00
2019-04-27T18:57:02.882Z,100.00
2019-04-27T18:59:28.827Z,100.00
2019-04-27T19:01:58.697Z,100.00
2019-04-27T19:04:28.678Z,100.00
2019-04-27T19:07:00.122Z,100.00
2019-04-27T19:09:31.171Z,100.00
2019-04-27T19:12:00.971Z,100.00
2019-04-27T19:14:30.680Z,100.00
2019-04-27T19:17:00.526Z,100.00
2019-04-27T19:19:30.210Z,100.00
2019-04-27T19:22:00.136Z,100.00
2019-04-27T19:24:29.975Z,100.00
2019-04-27T19:27:21.085Z,100.00
2019-04-27T19:29:53.777Z,100.00
2019-04-27T19:32:23.813Z,100.00
2019-04-27T19:34:54.900Z,100.00
2019-04-27T19:37:24.705Z,100.00
2019-04-27T19:39:55.882Z,100.00
2019-04-27T19:42:25.662Z,100.00
2019-04-27T19:44:55.378Z,100.00
2019-04-27T19:47:25.254Z,100.00
2019-04-27T19:49:55.116Z,100.00
2019-04-27T19:52:27.775Z,100.00
2019-04-27T19:54:58.545Z,100.00
2019-04-27T19:57:36.391Z,100.00
2019-04-27T20:00:02.568Z,100.00
2019-04-27T20:02:32.445Z,100.00
2019-04-27T20:05:08.463Z,100.00
2019-04-27T20:07:38.263Z,100.00
2019-04-27T20:10:09.212Z,100.00
2019-04-27T20:12:40.948Z,100.00
2019-04-27T20:15:11.112Z,100.00
2019-04-27T20:17:41.147Z,100.00
2019-04-27T20:20:12.820Z,100.00
2019-04-27T20:22:43.613Z,100.00
2019-04-27T20:25:14.771Z,100.00
2019-04-27T20:27:49.146Z,100.00
2019-04-27T20:30:16.812Z,100.00
2019-04-27T20:32:48.016Z,100.00
2019-04-27T20:35:17.687Z,100.00
2019-04-27T20:37:47.397Z,100.00
2019-04-27T20:40:18.555Z,100.00
2019-04-27T20:42:48.357Z,100.00
2019-04-27T20:45:18.267Z,100.00
2019-04-27T20:47:48.146Z,100.00
2019-04-27T20:50:17.803Z,100.00
2019-04-27T20:52:56.647Z,100.00
2019-04-27T20:55:26.552Z,100.00
2019-04-27T20:58:01.709Z,100.00
2019-04-27T21:00:28.158Z,100.00
2019-04-27T21:03:08.717Z,100.00
2019-04-27T21:05:55.090Z,100.00
2019-04-27T21:08:25.153Z,100.00
2019-04-27T21:10:54.907Z,100.00
2019-04-27T21:13:24.839Z,100.00
2019-04-27T21:15:54.743Z,100.00
2019-04-27T21:18:24.561Z,100.00
2019-04-27T21:20:54.325Z,100.00
2019-04-27T21:23:24.106Z,100.00
2019-04-27T21:25:54.026Z,100.00
2019-04-27T21:28:23.998Z,100.00
2019-04-27T21:30:53.908Z,100.00
2019-04-27T21:33:23.755Z,100.00
2019-04-27T21:35:53.667Z,100.00
2019-04-27T21:38:23.632Z,100.00
2019-04-27T21:40:53.498Z,100.00
2019-04-27T21:43:23.786Z,100.00
2019-04-27T21:45:53.539Z,100.00
2019-04-27T21:48:23.467Z,100.00
2019-04-27T21:50:53.426Z,100.00
2019-04-27T21:53:41.195Z,100.00
2019-04-27T21:56:12.038Z,100.00
2019-04-27T21:58:42.124Z,100.00
2019-04-27T22:01:43.503Z,100.00
2019-04-27T22:04:13.519Z,100.00
2019-04-27T22:06:43.392Z,100.00
2019-04-27T22:09:14.445Z,100.00
2019-04-27T22:11:44.465Z,100.00
2019-04-27T22:14:14.231Z,100.00
2019-04-27T22:16:44.263Z,100.00
2019-04-27T22:19:14.221Z,100.00
2019-04-27T22:21:44.211Z,100.00
2019-04-27T22:24:33.284Z,100.00
2019-04-27T22:27:03.106Z,100.00
2019-04-27T22:29:32.900Z,100.00
2019-04-27T22:32:02.885Z,100.00
2019-04-27T22:34:32.731Z,100.00
2019-04-27T22:37:02.798Z,100.00
2019-04-27T22:39:42.482Z,100.00
2019-04-27T22:42:31.397Z,100.00
2019-04-27T22:45:08.280Z,100.00
2019-04-27T22:47:38.048Z,100.00
2019-04-27T22:50:08.506Z,100.00
2019-04-27T22:52:38.307Z,100.00
2019-04-27T22:55:08.100Z,100.00
2019-04-27T22:57:45.859Z,100.00
2019-04-27T23:00:31.149Z,100.00
2019-04-27T23:03:02.766Z,100.00
2019-04-27T23:05:32.776Z,100.00
2019-04-27T23:08:02.563Z,100.00
2019-04-27T23:10:32.787Z,100.00
2019-04-27T23:13:02.672Z,100.00
2019-04-27T23:15:38.707Z,100.00
2019-04-27T23:18:08.625Z,100.00
2019-04-27T23:20:38.523Z,100.00
2019-04-27T23:23:08.423Z,100.00
2019-04-27T23:25:38.451Z,100.00
2019-04-27T23:28:08.378Z,100.00
2019-04-27T23:30:55.843Z,100.00
2019-04-27T23:33:25.593Z,100.00
2019-04-27T23:35:55.343Z,100.00
2019-04-27T23:38:25.144Z,100.00
2019-04-27T23:40:55.051Z,100.00
2019-04-27T23:43:25.009Z,100.00
2019-04-27T23:45:55.651Z,100.00
2019-04-27T23:48:25.304Z,100.00
2019-04-27T23:51:00.117Z,100.00
2019-04-27T23:53:31.872Z,100.00
2019-04-27T23:56:01.611Z,100.00
2019-04-27T23:58:31.495Z,100.00
